Time;durP1;ratioP1;P1;durP2;ratioP2;P2;SDS_P1;SDS_P2;PMS_P1;PMS_P2;Temp;Humidity;BMP_temperature;BMP_pressure;BME280_temperature;BME280_humidity;BME280_pressure;Samples;Min_cycle;Max_cycle;Signal;HPM_P1;HPM_P2
2023/12/11 00:01:39;;;;;;;3.78;1.20;;;;;;;6.66;100.00;99355.47;5035015;28;20658;-66
2023/12/11 00:04:08;;;;;;;1.08;0.98;;;;;;;6.60;100.00;99355.50;5031778;28;20335;-66
2023/12/11 00:06:37;;;;;;;3.05;0.98;;;;;;;6.66;100.00;99349.25;5030312;28;20178;-65
2023/12/11 00:09:06;;;;;;;0.98;0.70;;;;;;;6.57;100.00;99332.56;5040200;28;20668;-66
2023/12/11 00:11:35;;;;;;;4.53;1.10;;;;;;;6.66;100.00;99331.28;5028535;28;20205;-66
2023/12/11 00:14:03;;;;;;;2.28;2.15;;;;;;;6.63;100.00;99329.03;5029856;28;20218;-64
2023/12/11 00:16:33;;;;;;;1.70;0.70;;;;;;;6.57;100.00;99323.69;5019927;28;20186;-68
2023/12/11 00:19:19;;;;;;;4.20;1.17;;;;;;;6.69;100.00;99327.31;5028135;28;20185;-65
2023/12/11 00:21:48;;;;;;;1.10;0.80;;;;;;;6.61;100.00;99324.88;5030917;28;20303;-66
2023/12/11 00:24:19;;;;;;;3.05;1.15;;;;;;;6.68;100.00;99310.38;5027213;28;20226;-65
2023/12/11 00:26:48;;;;;;;2.95;1.27;;;;;;;6.67;100.00;99313.28;5031511;28;20202;-66
2023/12/11 00:29:17;;;;;;;1.20;1.05;;;;;;;6.66;100.00;99307.09;5025766;28;20190;-66
2023/12/11 00:31:47;;;;;;;1.65;1.55;;;;;;;6.52;100.00;99290.22;5031062;28;20206;-68
2023/12/11 00:34:16;;;;;;;1.98;1.17;;;;;;;6.43;100.00;99279.94;5033232;28;20213;-66
2023/12/11 00:36:46;;;;;;;1.75;1.00;;;;;;;6.41;100.00;99272.06;5030600;28;20240;-64
2023/12/11 00:39:16;;;;;;;1.02;0.70;;;;;;;6.55;100.00;99262.91;5030511;28;20190;-66
2023/12/11 00:41:45;;;;;;;1.52;0.88;;;;;;;6.63;100.00;99258.31;5033540;28;20185;-66
2023/12/11 00:44:14;;;;;;;1.00;0.88;;;;;;;6.61;100.00;99255.00;5024428;28;20224;-66
2023/12/11 00:46:43;;;;;;;2.50;1.30;;;;;;;6.51;100.00;99248.25;5023340;28;20189;-67
2023/12/11 00:49:13;;;;;;;4.40;1.38;;;;;;;6.47;100.00;99238.97;5017696;28;20201;-65
2023/12/11 00:51:42;;;;;;;1.55;0.60;;;;;;;6.50;100.00;99235.03;5021210;28;20605;-66
2023/12/11 00:54:11;;;;;;;2.63;0.88;;;;;;;6.72;100.00;99230.13;5030560;28;20728;-66
2023/12/11 00:56:40;;;;;;;1.02;0.70;;;;;;;6.55;100.00;99219.06;5026916;28;20198;-66
2023/12/11 00:59:09;;;;;;;3.03;1.02;;;;;;;6.55;100.00;99211.84;5025747;28;20197;-66
2023/12/11 01:01:38;;;;;;;1.77;1.15;;;;;;;6.57;100.00;99208.13;5031466;28;20190;-66
2023/12/11 01:04:07;;;;;;;4.53;3.38;;;;;;;6.60;100.00;99204.97;5033065;28;20224;-66
2023/12/11 01:06:37;;;;;;;3.40;1.02;;;;;;;6.53;100.00;99197.78;5028538;28;20556;-66
2023/12/11 01:09:06;;;;;;;4.32;1.67;;;;;;;6.65;100.00;99186.34;5019952;28;20197;-64
2023/12/11 01:11:35;;;;;;;1.67;1.40;;;;;;;6.58;100.00;99181.03;5026356;28;20213;-65
2023/12/11 01:14:04;;;;;;;3.55;1.90;;;;;;;6.64;100.00;99179.31;5033219;28;20644;-65
2023/12/11 01:16:33;;;;;;;0.90;0.65;;;;;;;6.64;100.00;99180.13;5026544;28;20197;-66
2023/12/11 01:19:01;;;;;;;1.60;0.80;;;;;;;6.51;100.00;99173.00;5032384;28;20196;-66
2023/12/11 01:21:30;;;;;;;1.38;1.15;;;;;;;6.59;100.00;99168.41;5020851;28;20263;-66
2023/12/11 01:24:01;;;;;;;1.15;1.05;;;;;;;6.58;100.00;99161.41;5023928;28;20197;-66
2023/12/11 01:26:29;;;;;;;1.40;0.98;;;;;;;6.61;100.00;99158.25;5024065;28;20197;-66
2023/12/11 01:28:58;;;;;;;7.07;1.60;;;;;;;6.68;100.00;99134.84;5016530;28;20190;-65
2023/12/11 01:31:27;;;;;;;2.28;1.48;;;;;;;6.72;100.00;99133.38;5022227;28;20205;-65
2023/12/11 01:33:56;;;;;;;1.02;0.80;;;;;;;6.65;100.00;99127.22;5033874;28;20338;-65
2023/12/11 01:36:25;;;;;;;1.33;0.80;;;;;;;6.57;100.00;99132.88;5023916;28;20194;-65
2023/12/11 01:38:53;;;;;;;1.27;1.17;;;;;;;6.62;100.00;99124.97;5032493;28;20215;-65
2023/12/11 01:41:24;;;;;;;0.90;0.60;;;;;;;6.62;100.00;99127.66;5025274;28;20654;-66
2023/12/11 01:43:53;;;;;;;1.85;1.13;;;;;;;6.61;100.00;99121.47;5031493;28;20244;-64
2023/12/11 01:46:24;;;;;;;0.90;0.80;;;;;;;6.50;100.00;99112.25;5025169;28;20192;-65
2023/12/11 01:48:54;;;;;;;2.55;0.70;;;;;;;6.56;100.00;99110.53;5020313;28;20193;-65
2023/12/11 01:51:25;;;;;;;1.85;1.45;;;;;;;6.59;100.00;99104.72;5029040;28;20281;-67
2023/12/11 01:53:54;;;;;;;1.48;1.10;;;;;;;6.54;100.00;99091.94;5019348;28;20202;-65
2023/12/11 01:56:24;;;;;;;3.08;0.75;;;;;;;6.53;100.00;99087.59;5021815;28;20190;-64
2023/12/11 01:58:53;;;;;;;2.97;1.08;;;;;;;6.59;100.00;99088.59;5020580;28;20197;-65
2023/12/11 02:01:24;;;;;;;1.95;1.05;;;;;;;6.55;100.00;99082.84;5024133;28;20690;-66
2023/12/11 02:03:53;;;;;;;3.70;0.95;;;;;;;6.61;100.00;99074.94;5028914;28;20243;-65
2023/12/11 02:06:23;;;;;;;3.63;2.33;;;;;;;6.66;100.00;99059.81;5026091;28;20195;-66
2023/12/11 02:08:52;;;;;;;0.80;0.60;;;;;;;6.73;100.00;99065.13;5029800;28;20193;-66
2023/12/11 02:11:22;;;;;;;1.13;0.80;;;;;;;6.64;100.00;99066.44;5026137;28;20204;-66
2023/12/11 02:13:51;;;;;;;1.00;0.90;;;;;;;6.73;100.00;99059.75;5025700;28;20202;-65
2023/12/11 02:16:20;;;;;;;1.55;1.10;;;;;;;6.66;100.00;99057.13;5024756;28;20212;-66
2023/12/11 02:18:49;;;;;;;2.55;0.90;;;;;;;6.75;100.00;99053.09;5021039;28;20197;-67
2023/12/11 02:21:19;;;;;;;0.90;0.70;;;;;;;6.79;100.00;99038.16;5026340;28;20189;-66
2023/12/11 02:23:52;;;;;;;4.07;1.90;;;;;;;6.76;100.00;99037.78;5029301;28;20193;-68
2023/12/11 02:26:23;;;;;;;1.58;1.48;;;;;;;6.81;100.00;99033.41;5024073;28;20205;-67
2023/12/11 02:28:52;;;;;;;1.75;1.05;;;;;;;6.81;100.00;99019.13;5021576;28;20197;-68
2023/12/11 02:31:21;;;;;;;2.42;1.00;;;;;;;6.84;100.00;99013.31;5025261;28;20205;-67
2023/12/11 02:33:50;;;;;;;2.30;1.75;;;;;;;6.95;100.00;99010.69;5024599;28;20201;-67
2023/12/11 02:36:19;;;;;;;0.90;0.70;;;;;;;6.95;100.00;99020.63;5022175;28;20277;-67
2023/12/11 02:38:47;;;;;;;2.03;0.70;;;;;;;6.90;100.00;99023.16;5024985;28;20194;-67
2023/12/11 02:41:16;;;;;;;0.90;0.70;;;;;;;6.88;100.00;99009.94;5023653;28;20563;-67
2023/12/11 02:43:47;;;;;;;1.05;0.90;;;;;;;6.95;100.00;99020.63;5032712;28;20209;-67
2023/12/11 02:46:15;;;;;;;1.88;0.88;;;;;;;6.97;100.00;99002.41;5034425;28;20255;-67
2023/12/11 02:48:44;;;;;;;1.58;1.02;;;;;;;7.02;100.00;99005.22;5022556;28;20216;-66
2023/12/11 02:51:15;;;;;;;0.80;0.60;;;;;;;7.15;100.00;99005.09;5026871;28;20197;-67
2023/12/11 02:53:45;;;;;;;4.28;1.50;;;;;;;7.20;100.00;99002.53;5021590;28;20276;-66
2023/12/11 02:56:14;;;;;;;1.10;0.80;;;;;;;7.15;100.00;98996.19;5027431;28;20670;-67
2023/12/11 02:58:44;;;;;;;3.92;1.35;;;;;;;7.15;100.00;98997.03;5033549;28;20189;-67
2023/12/11 03:01:15;;;;;;;1.90;0.85;;;;;;;7.29;100.00;99001.19;5027992;28;20204;-67
2023/12/11 03:03:44;;;;;;;1.08;0.57;;;;;;;7.37;100.00;99002.72;5031969;28;20276;-66
2023/12/11 03:06:19;;;;;;;2.47;1.67;;;;;;;7.41;100.00;99003.91;5026230;28;20205;-68
2023/12/11 03:08:48;;;;;;;1.00;0.90;;;;;;;7.36;100.00;98995.69;5017953;28;20686;-68
2023/12/11 03:11:17;;;;;;;1.75;0.98;;;;;;;7.38;100.00;98999.00;5024191;28;20194;-69
2023/12/11 03:13:45;;;;;;;1.15;1.05;;;;;;;7.51;100.00;99006.06;5026270;28;20697;-68
2023/12/11 03:16:16;;;;;;;1.10;0.82;;;;;;;7.56;100.00;99000.81;5025062;28;20736;-68
2023/12/11 03:18:45;;;;;;;9.43;0.90;;;;;;;7.67;100.00;99005.44;5024130;28;20198;-68
2023/12/11 03:21:15;;;;;;;2.30;1.00;;;;;;;7.63;100.00;99005.06;5023198;28;20277;-67
2023/12/11 03:23:43;;;;;;;1.80;0.90;;;;;;;7.70;100.00;99003.09;5020969;28;20189;-68
2023/12/11 03:26:12;;;;;;;1.85;1.40;;;;;;;7.77;100.00;99011.91;5020181;28;20560;-68
2023/12/11 03:28:41;;;;;;;2.25;1.00;;;;;;;7.83;100.00;99007.47;5029345;28;20233;-68
2023/12/11 03:31:10;;;;;;;1.45;1.05;;;;;;;7.77;100.00;99014.59;5027540;28;20194;-66
2023/12/11 03:33:40;;;;;;;1.67;1.23;;;;;;;7.79;100.00;99006.28;5036273;28;20220;-67
2023/12/11 03:36:09;;;;;;;1.23;0.80;;;;;;;7.88;100.00;99025.63;5030967;28;20308;-66
2023/12/11 03:38:38;;;;;;;1.15;0.80;;;;;;;7.92;100.00;99027.63;5030193;28;20212;-67
2023/12/11 03:41:07;;;;;;;1.00;0.88;;;;;;;7.94;100.00;99038.19;5027292;28;20193;-67
2023/12/11 03:43:36;;;;;;;1.10;0.90;;;;;;;7.98;100.00;99031.28;5025766;28;20194;-66
2023/12/11 03:46:05;;;;;;;2.70;1.38;;;;;;;8.06;100.00;99034.47;5032478;28;20689;-66
2023/12/11 03:48:35;;;;;;;4.20;0.90;;;;;;;8.03;100.00;99037.63;5029970;28;20186;-68
2023/12/11 03:51:05;;;;;;;3.40;1.30;;;;;;;7.99;100.00;99039.13;5033078;28;20205;-67
2023/12/11 03:53:34;;;;;;;1.10;0.60;;;;;;;8.17;100.00;99052.53;5026426;28;20222;-67
2023/12/11 03:56:03;;;;;;;1.35;0.82;;;;;;;8.17;100.00;99060.63;5030519;28;20276;-67
2023/12/11 03:58:32;;;;;;;1.88;1.13;;;;;;;8.11;100.00;99058.00;5026293;28;20598;-67
2023/12/11 04:01:01;;;;;;;0.90;0.80;;;;;;;8.10;100.00;99046.41;5030496;28;20260;-68
2023/12/11 04:03:31;;;;;;;3.83;1.63;;;;;;;8.21;100.00;99059.09;5023816;28;20280;-68
2023/12/11 04:06:00;;;;;;;5.95;1.50;;;;;;;8.19;100.00;99065.75;5027725;28;20208;-67
2023/12/11 04:08:30;;;;;;;6.43;1.33;;;;;;;8.14;100.00;99063.75;5029617;28;20736;-67
2023/12/11 04:10:59;;;;;;;4.30;0.82;;;;;;;8.27;100.00;99065.44;5018984;28;20272;-67
2023/12/11 04:13:28;;;;;;;1.30;1.00;;;;;;;8.31;100.00;99055.03;5027464;28;20205;-67
2023/12/11 04:15:57;;;;;;;1.00;0.70;;;;;;;8.32;100.00;99070.16;5026687;28;20220;-67
2023/12/11 04:18:26;;;;;;;2.78;1.35;;;;;;;8.40;100.00;99067.94;5025879;28;20198;-67
2023/12/11 04:20:55;;;;;;;3.25;1.15;;;;;;;8.38;100.00;99074.59;5022556;28;20247;-68
2023/12/11 04:23:23;;;;;;;1.75;1.50;;;;;;;8.32;100.00;99075.56;5036989;28;20193;-68
2023/12/11 04:26:08;;;;;;;1.67;0.95;;;;;;;8.34;100.00;99078.81;5021403;28;20222;-68
2023/12/11 04:28:37;;;;;;;4.38;1.73;;;;;;;8.39;100.00;99079.78;5019090;28;20190;-68
2023/12/11 04:31:06;;;;;;;4.50;2.60;;;;;;;8.35;100.00;99080.47;5029208;28;20247;-68
2023/12/11 04:33:37;;;;;;;2.15;1.35;;;;;;;8.37;100.00;99094.53;5029322;28;20277;-68
2023/12/11 04:36:09;;;;;;;4.15;1.40;;;;;;;8.29;100.00;99092.94;5029032;28;20214;-67
2023/12/11 04:38:38;;;;;;;1.88;0.95;;;;;;;8.43;100.00;99093.59;5030920;28;20196;-67
2023/12/11 04:41:08;;;;;;;1.55;0.77;;;;;;;8.43;100.00;99099.81;5031917;28;20201;-67
2023/12/11 04:43:37;;;;;;;5.03;0.90;;;;;;;8.40;100.00;99094.06;5028086;28;20559;-67
2023/12/11 04:46:06;;;;;;;2.00;0.95;;;;;;;8.44;100.00;99097.94;5030371;28;20305;-68
2023/12/11 04:48:36;;;;;;;2.35;1.30;;;;;;;8.54;100.00;99107.09;5028189;28;20190;-67
2023/12/11 04:51:05;;;;;;;6.25;2.38;;;;;;;8.52;100.00;99108.41;5022160;28;20605;-66
2023/12/11 04:53:34;;;;;;;3.42;1.10;;;;;;;8.55;100.00;99103.38;5020293;28;20217;-67
2023/12/11 04:56:08;;;;;;;4.60;1.88;;;;;;;8.61;100.00;99110.53;5022636;28;20694;-67
2023/12/11 04:58:37;;;;;;;1.35;0.95;;;;;;;8.53;100.00;99110.03;5022729;28;20201;-67
2023/12/11 05:01:06;;;;;;;2.38;1.13;;;;;;;8.50;100.00;99113.19;5020699;28;20205;-66
2023/12/11 05:03:35;;;;;;;4.30;1.50;;;;;;;8.47;100.00;99105.59;5028620;28;20177;-67
2023/12/11 05:06:04;;;;;;;1.63;1.30;;;;;;;8.46;100.00;99109.31;5017328;28;20213;-68
2023/12/11 05:08:33;;;;;;;2.85;1.05;;;;;;;8.42;100.00;99110.84;5025905;28;20197;-67
2023/12/11 05:11:02;;;;;;;2.35;2.13;;;;;;;8.39;100.00;99114.81;5027007;28;20198;-67
2023/12/11 05:13:32;;;;;;;6.60;1.30;;;;;;;8.38;100.00;99123.94;5028515;28;20216;-68
2023/12/11 05:16:02;;;;;;;1.17;0.68;;;;;;;8.39;100.00;99119.38;5020421;28;20224;-66
2023/12/11 05:18:31;;;;;;;5.10;1.23;;;;;;;8.27;100.00;99128.25;5025792;28;20193;-68
2023/12/11 05:21:05;;;;;;;3.78;1.20;;;;;;;8.24;100.00;99117.91;5026622;28;20209;-68
2023/12/11 05:23:34;;;;;;;1.33;1.10;;;;;;;8.18;100.00;99129.59;5026656;28;20195;-67
2023/12/11 05:26:03;;;;;;;6.35;1.38;;;;;;;8.15;100.00;99130.06;5020727;28;20216;-65
2023/12/11 05:28:33;;;;;;;9.48;1.45;;;;;;;8.19;100.00;99131.25;5023596;28;20216;-68
2023/12/11 05:31:02;;;;;;;1.77;0.80;;;;;;;8.28;100.00;99146.03;5025004;28;20686;-66
2023/12/11 05:33:31;;;;;;;1.73;1.45;;;;;;;8.33;100.00;99133.78;5032454;28;20213;-68
2023/12/11 05:36:00;;;;;;;3.47;1.10;;;;;;;8.35;100.00;99134.38;5026093;28;20248;-69
2023/12/11 05:38:29;;;;;;;2.85;0.95;;;;;;;8.35;100.00;99135.19;5023749;28;20276;-68
2023/12/11 05:40:58;;;;;;;1.00;0.77;;;;;;;8.19;100.00;99141.19;5023813;28;20189;-68
2023/12/11 05:43:27;;;;;;;2.90;1.40;;;;;;;8.06;100.00;99141.38;5031814;28;20613;-67
2023/12/11 05:46:11;;;;;;;6.80;1.27;;;;;;;7.99;100.00;99141.47;5031341;28;20581;-68
2023/12/11 05:48:39;;;;;;;1.40;0.98;;;;;;;7.97;100.00;99140.88;5023568;28;20190;-67
2023/12/11 05:51:09;;;;;;;1.20;0.82;;;;;;;8.00;100.00;99142.28;5021106;28;20194;-65
2023/12/11 05:53:37;;;;;;;7.43;1.60;;;;;;;7.91;100.00;99141.78;5025693;28;20239;-66
2023/12/11 05:56:07;;;;;;;4.38;1.52;;;;;;;8.04;100.00;99138.91;5023118;28;20209;-67
2023/12/11 05:58:36;;;;;;;1.42;1.33;;;;;;;8.11;100.00;99142.34;5025205;28;20205;-67
2023/12/11 06:01:06;;;;;;;5.03;1.05;;;;;;;8.15;100.00;99148.09;5035555;28;20202;-66
2023/12/11 06:03:36;;;;;;;1.15;0.98;;;;;;;8.19;100.00;99157.34;5023531;28;20244;-67
2023/12/11 06:06:14;;;;;;;14.55;2.08;;;;;;;8.31;100.00;99160.97;5018294;28;20296;-66
2023/12/11 06:08:43;;;;;;;2.85;1.23;;;;;;;8.31;100.00;99154.75;5030839;28;20693;-68
2023/12/11 06:11:12;;;;;;;1.33;1.08;;;;;;;8.31;100.00;99149.34;5032762;28;20194;-67
2023/12/11 06:13:41;;;;;;;5.97;1.90;;;;;;;8.40;100.00;99158.75;5016462;28;20233;-67
2023/12/11 06:16:10;;;;;;;5.70;1.92;;;;;;;8.40;100.00;99154.19;5028532;28;20189;-67
2023/12/11 06:18:41;;;;;;;2.55;1.17;;;;;;;8.43;100.00;99153.72;5030612;28;20200;-67
2023/12/11 06:21:19;;;;;;;6.95;1.75;;;;;;;8.48;100.00;99144.94;5026114;28;20193;-67
2023/12/11 06:23:48;;;;;;;6.10;2.17;;;;;;;8.53;100.00;99153.16;5023499;28;20204;-66
2023/12/11 06:26:28;;;;;;;3.35;2.80;;;;;;;8.52;100.00;99155.03;5027784;28;20580;-67
2023/12/11 06:28:59;;;;;;;1.15;1.00;;;;;;;8.50;100.00;99159.03;5024466;28;20683;-67
2023/12/11 06:31:29;;;;;;;11.73;2.17;;;;;;;8.49;100.00;99160.06;5032660;28;20197;-66
2023/12/11 06:34:00;;;;;;;3.15;1.60;;;;;;;8.48;100.00;99161.09;5032062;28;20239;-66
2023/12/11 06:36:29;;;;;;;1.75;1.27;;;;;;;8.37;100.00;99159.22;5030498;28;20217;-68
2023/12/11 06:38:58;;;;;;;7.22;2.13;;;;;;;8.44;100.00;99155.38;5025154;28;20205;-67
2023/12/11 06:41:27;;;;;;;16.73;2.30;;;;;;;8.41;100.00;99157.72;5028331;28;20272;-68
2023/12/11 06:43:57;;;;;;;1.50;1.00;;;;;;;8.44;100.00;99162.63;5022873;28;20431;-67
2023/12/11 06:46:28;;;;;;;1.40;1.00;;;;;;;8.37;100.00;99157.34;5032692;28;20485;-67
2023/12/11 06:49:00;;;;;;;2.47;1.63;;;;;;;8.45;100.00;99158.88;5027513;28;20436;-67
2023/12/11 06:51:29;;;;;;;4.82;1.33;;;;;;;8.41;100.00;99165.78;5032829;28;20249;-67
2023/12/11 06:53:59;;;;;;;2.27;1.67;;;;;;;8.35;100.00;99172.91;5024923;28;20251;-67
2023/12/11 06:56:30;;;;;;;6.40;1.55;;;;;;;8.46;100.00;99171.31;5028882;28;20970;-67
2023/12/11 06:59:00;;;;;;;5.33;1.60;;;;;;;8.35;100.00;99166.72;5020431;28;20257;-66
2023/12/11 07:01:30;;;;;;;4.63;2.33;;;;;;;8.43;100.00;99169.06;5026373;28;21089;-67
2023/12/11 07:04:01;;;;;;;2.58;1.08;;;;;;;8.41;100.00;99165.78;5026869;28;20182;-66
2023/12/11 07:06:30;;;;;;;17.65;2.80;;;;;;;8.31;100.00;99173.59;5033671;28;20189;-67
2023/12/11 07:08:59;;;;;;;3.58;1.80;;;;;;;8.36;100.00;99179.97;5022606;28;20543;-66
2023/12/11 07:11:28;;;;;;;3.92;2.05;;;;;;;8.31;100.00;99182.53;5027053;28;20596;-66
2023/12/11 07:13:57;;;;;;;5.13;1.33;;;;;;;8.37;100.00;99180.78;5031282;28;20205;-66
2023/12/11 07:16:27;;;;;;;1.77;1.13;;;;;;;8.17;100.00;99181.03;5031001;28;20244;-68
2023/12/11 07:18:56;;;;;;;4.50;1.10;;;;;;;8.20;100.00;99186.78;5038759;28;20328;-67
2023/12/11 07:21:26;;;;;;;2.38;1.55;;;;;;;8.22;100.00;99184.69;5029115;28;20213;-67
2023/12/11 07:24:02;;;;;;;4.75;2.05;;;;;;;8.30;100.00;99191.66;5025963;28;20198;-66
2023/12/11 07:26:31;;;;;;;17.38;2.38;;;;;;;8.29;100.00;99190.81;5027398;28;20276;-67
2023/12/11 07:29:00;;;;;;;9.13;2.45;;;;;;;8.24;100.00;99196.03;5023151;28;20581;-65
2023/12/11 07:31:29;;;;;;;6.57;2.35;;;;;;;8.35;100.00;99196.34;5030334;28;20201;-67
2023/12/11 07:33:58;;;;;;;4.90;1.80;;;;;;;8.35;100.00;99199.88;5024105;28;20211;-67
2023/12/11 07:36:28;;;;;;;3.15;1.23;;;;;;;8.33;100.00;99201.16;5022904;28;20421;-66
2023/12/11 07:38:57;;;;;;;1.75;1.08;;;;;;;8.29;100.00;99198.91;5032870;28;20247;-66
2023/12/11 07:41:26;;;;;;;3.22;1.55;;;;;;;8.37;100.00;99200.47;5028710;28;20209;-67
2023/12/11 07:43:54;;;;;;;3.28;1.13;;;;;;;8.36;100.00;99206.09;5029128;28;20281;-66
2023/12/11 07:46:23;;;;;;;6.43;1.63;;;;;;;8.30;100.00;99210.50;5023452;28;20701;-66
2023/12/11 07:48:53;;;;;;;1.38;1.13;;;;;;;8.35;100.00;99204.44;5031048;28;20659;-66
2023/12/11 07:51:24;;;;;;;2.05;1.02;;;;;;;8.30;100.00;99194.34;5025427;28;20588;-67
2023/12/11 07:53:55;;;;;;;2.13;1.20;;;;;;;8.35;100.00;99199.88;5022780;28;20215;-66
2023/12/11 07:56:25;;;;;;;4.22;2.17;;;;;;;8.45;100.00;99204.72;5024507;28;20196;-68
2023/12/11 07:58:55;;;;;;;1.25;0.93;;;;;;;8.46;100.00;99206.34;5029077;28;20197;-67
2023/12/11 08:01:24;;;;;;;2.03;1.00;;;;;;;8.38;100.00;99198.56;5026868;28;20277;-67
2023/12/11 08:03:53;;;;;;;1.33;1.07;;;;;;;8.53;100.00;99201.69;5032374;28;20284;-66
2023/12/11 08:06:22;;;;;;;4.13;1.35;;;;;;;8.56;100.00;99204.75;5033307;28;20442;-67
2023/12/11 08:08:53;;;;;;;4.28;1.10;;;;;;;8.48;100.00;99199.69;5028141;28;20240;-66
2023/12/11 08:11:24;;;;;;;4.07;1.88;;;;;;;8.52;100.00;99197.38;5028921;28;20193;-66
2023/12/11 08:13:53;;;;;;;1.20;0.90;;;;;;;8.60;100.00;99202.41;5033833;28;20193;-67
2023/12/11 08:16:23;;;;;;;2.15;1.45;;;;;;;8.57;100.00;99202.84;5026799;28;20216;-66
2023/12/11 08:18:52;;;;;;;2.05;1.20;;;;;;;8.62;100.00;99205.69;5033482;28;20197;-68
2023/12/11 08:21:21;;;;;;;2.75;1.20;;;;;;;8.67;100.00;99203.13;5025263;28;20205;-66
2023/12/11 08:23:51;;;;;;;6.63;1.67;;;;;;;8.67;100.00;99203.94;5025358;28;20217;-66
2023/12/11 08:26:21;;;;;;;2.47;0.90;;;;;;;8.59;100.00;99200.75;5023583;28;20182;-67
2023/12/11 08:28:50;;;;;;;2.97;2.55;;;;;;;8.64;100.00;99209.81;5032442;28;20532;-65
2023/12/11 08:31:19;;;;;;;3.03;1.00;;;;;;;8.76;100.00;99198.25;5021171;28;20564;-67
2023/12/11 08:33:48;;;;;;;3.10;1.58;;;;;;;8.73;100.00;99199.50;5022328;28;20220;-68
2023/12/11 08:36:17;;;;;;;2.85;0.90;;;;;;;8.84;100.00;99204.13;5023355;28;20584;-65
2023/12/11 08:38:46;;;;;;;4.03;2.55;;;;;;;8.84;100.00;99196.03;5029211;28;20244;-66
2023/12/11 08:41:15;;;;;;;1.13;0.95;;;;;;;8.87;100.00;99198.25;5027872;28;20201;-67
2023/12/11 08:43:46;;;;;;;1.42;1.33;;;;;;;8.85;100.00;99194.97;5023137;28;20205;-65
2023/12/11 08:46:15;;;;;;;2.28;1.17;;;;;;;8.86;100.00;99199.28;5032556;28;20691;-67
2023/12/11 08:48:45;;;;;;;2.40;1.00;;;;;;;9.08;100.00;99195.00;5035719;28;20185;-66
2023/12/11 08:51:17;;;;;;;6.60;1.00;;;;;;;9.05;100.00;99195.44;5028948;28;20931;-67
2023/12/11 08:53:46;;;;;;;4.60;1.23;;;;;;;9.10;100.00;99190.16;5030854;28;20438;-66
2023/12/11 08:56:15;;;;;;;2.75;1.45;;;;;;;9.06;100.00;99186.31;5027776;28;20221;-66
2023/12/11 08:58:46;;;;;;;3.73;1.20;;;;;;;9.02;100.00;99179.75;5024106;28;20548;-66
2023/12/11 09:01:15;;;;;;;2.63;1.40;;;;;;;9.19;100.00;99179.06;5029208;28;20424;-66
2023/12/11 09:03:44;;;;;;;2.03;1.30;;;;;;;9.32;100.00;99184.22;5026033;28;20459;-66
2023/12/11 09:06:14;;;;;;;2.17;1.40;;;;;;;9.39;100.00;99190.31;5029100;28;20437;-66
2023/12/11 09:08:43;;;;;;;3.33;0.90;;;;;;;9.38;100.00;99186.78;5030551;28;20411;-67
2023/12/11 09:11:12;;;;;;;3.00;1.40;;;;;;;9.29;100.00;99182.00;5029107;28;20438;-65
2023/12/11 09:13:41;;;;;;;2.67;1.50;;;;;;;9.12;100.00;99193.47;5028245;28;20403;-67
2023/12/11 09:16:11;;;;;;;4.33;1.10;;;;;;;9.08;100.00;99191.47;5027575;28;20825;-66
2023/12/11 09:18:40;;;;;;;1.83;1.10;;;;;;;9.19;100.00;99193.38;5024602;28;20515;-67
2023/12/11 09:21:09;;;;;;;2.33;1.63;;;;;;;9.27;100.00;99197.59;5024256;28;20911;-67
2023/12/11 09:23:38;;;;;;;5.03;1.77;;;;;;;9.23;100.00;99207.22;5023177;28;20423;-69
2023/12/11 09:26:07;;;;;;;1.00;0.70;;;;;;;9.00;100.00;99199.94;5030482;28;20528;-67
2023/12/11 09:28:37;;;;;;;1.97;1.10;;;;;;;8.96;100.00;99196.84;5023942;28;20448;-67
2023/12/11 09:31:21;;;;;;;1.53;1.10;;;;;;;8.95;100.00;99200.63;5022715;28;20408;-69
2023/12/11 09:33:50;;;;;;;10.43;1.37;;;;;;;8.90;100.00;99194.28;5015918;28;20441;-67
2023/12/11 09:36:20;;;;;;;5.13;1.03;;;;;;;8.84;100.00;99204.13;5025035;28;20470;-67
2023/12/11 09:38:49;;;;;;;5.73;1.10;;;;;;;8.69;100.00;99195.63;5027848;28;20436;-67
2023/12/11 09:41:18;;;;;;;6.57;1.13;;;;;;;8.60;100.00;99188.94;5029639;28;20439;-67
2023/12/11 09:43:48;;;;;;;3.50;1.35;;;;;;;8.74;100.00;99187.69;5025631;28;20197;-66
2023/12/11 09:46:21;;;;;;;2.47;1.63;;;;;;;8.80;100.00;99192.16;5028447;28;20193;-67
2023/12/11 09:48:51;;;;;;;2.60;1.00;;;;;;;8.79;100.00;99195.91;5034960;28;20246;-68
2023/12/11 09:51:20;;;;;;;1.35;0.90;;;;;;;8.73;100.00;99188.72;5030843;28;20200;-67
2023/12/11 09:53:49;;;;;;;2.22;1.27;;;;;;;8.71;100.00;99204.34;5025654;28;20616;-68
2023/12/11 09:56:22;;;;;;;4.72;1.65;;;;;;;8.72;100.00;99200.56;5030406;28;20202;-67
2023/12/11 09:58:52;;;;;;;2.05;1.33;;;;;;;8.71;100.00;99193.53;5025729;28;20190;-67
2023/12/11 10:01:22;;;;;;;1.20;1.05;;;;;;;8.71;100.00;99201.63;5029582;28;20197;-66
2023/12/11 10:03:51;;;;;;;1.80;0.98;;;;;;;8.63;100.00;99191.16;5025439;28;20706;-68
2023/12/11 10:06:20;;;;;;;1.20;1.00;;;;;;;8.55;100.00;99194.19;5027946;28;20192;-67
2023/12/11 10:08:52;;;;;;;2.95;0.70;;;;;;;8.55;100.00;99194.19;5024365;28;20193;-67
2023/12/11 10:11:22;;;;;;;1.90;1.08;;;;;;;8.54;100.00;99192.53;5028144;28;20190;-67
2023/12/11 10:13:51;;;;;;;1.45;0.90;;;;;;;8.56;100.00;99190.44;5024178;28;20212;-68
2023/12/11 10:16:32;;;;;;;1.88;0.82;;;;;;;8.62;100.00;99189.50;5018323;28;20284;-67
2023/12/11 10:19:01;;;;;;;4.47;0.85;;;;;;;8.57;100.00;99189.38;5020457;28;20190;-67
2023/12/11 10:21:39;;;;;;;2.63;2.45;;;;;;;8.63;100.00;99177.69;5021667;28;20197;-67
2023/12/11 10:24:13;;;;;;;0.90;0.70;;;;;;;8.62;100.00;99173.34;5027093;28;20245;-67
2023/12/11 10:26:47;;;;;;;3.92;1.08;;;;;;;8.66;100.00;99171.84;5019280;28;20204;-67
2023/12/11 10:29:21;;;;;;;1.23;0.75;;;;;;;8.70;100.00;99170.31;5023484;28;20193;-67
2023/12/11 10:32:01;;;;;;;2.00;1.00;;;;;;;8.75;100.00;99173.16;5023872;28;20463;-67
2023/12/11 10:34:43;;;;;;;4.25;1.52;;;;;;;8.84;100.00;99169.06;5019853;28;20213;-67
2023/12/11 10:37:19;;;;;;;2.40;0.90;;;;;;;8.90;100.00;99170.00;5027392;28;20236;-67
2023/12/11 10:39:58;;;;;;;8.80;1.75;;;;;;;8.83;100.00;99159.31;5020026;28;20794;-67
2023/12/11 10:42:30;;;;;;;1.77;1.17;;;;;;;8.76;100.00;99158.63;5025932;28;20293;-68
2023/12/11 10:45:28;;;;;;;9.95;1.98;;;;;;;8.80;100.00;99154.41;5029171;28;20229;-67
2023/12/11 10:48:10;;;;;;;1.85;1.02;;;;;;;8.69;100.00;99156.00;5034651;28;20281;-68
2023/12/11 10:51:10;;;;;;;1.70;1.15;;;;;;;8.65;100.00;99152.16;5014622;28;20608;-66
2023/12/11 10:53:39;;;;;;;1.35;1.25;;;;;;;8.67;100.00;99146.50;5026131;28;21694;-67
2023/12/11 10:56:10;;;;;;;4.88;2.15;;;;;;;8.75;100.00;99153.44;5024604;28;20221;-68
2023/12/11 10:58:39;;;;;;;5.05;1.50;;;;;;;8.72;100.00;99152.03;5029390;28;20181;-68
2023/12/11 11:01:12;;;;;;;1.43;1.10;;;;;;;8.75;100.00;99145.34;5027181;28;20231;-67
2023/12/11 11:03:43;;;;;;;2.43;1.00;;;;;;;8.75;100.00;99145.34;5027473;28;20408;-74
2023/12/11 11:06:12;;;;;;;1.20;0.80;;;;;;;8.79;100.00;99141.97;5024067;28;20463;-67
2023/12/11 11:08:52;;;;;;;5.90;1.30;;;;;;;8.74;100.00;99133.75;5022599;28;20520;-68
2023/12/11 11:11:29;;;;;;;1.90;0.90;;;;;;;8.71;100.00;99135.00;5022207;28;20633;-66
2023/12/11 11:14:29;;;;;;;3.53;1.00;;;;;;;8.90;100.00;99135.75;5023281;28;20451;-67
2023/12/11 11:17:01;;;;;;;5.05;0.80;;;;;;;8.83;100.00;99129.66;5027707;28;20533;-67
2023/12/11 11:19:31;;;;;;;4.20;1.17;;;;;;;9.11;100.00;99134.34;5026137;28;20196;-67
2023/12/11 11:22:19;;;;;;;4.43;1.57;;;;;;;9.08;100.00;99124.03;5033123;28;20205;-68
2023/12/11 11:25:31;;;;;;;3.20;1.40;;;;;;;9.37;100.00;99117.66;5020358;28;20809;-68
2023/12/11 11:28:01;;;;;;;1.00;0.70;;;;;;;9.52;100.00;99118.00;5027628;28;20193;-68
2023/12/11 11:30:51;;;;;;;19.67;1.87;;;;;;;9.47;100.00;99114.34;5024579;28;20218;-68
2023/12/11 11:33:21;;;;;;;2.07;1.43;;;;;;;9.40;100.00;99116.34;5020342;28;20413;-68
2023/12/11 11:35:54;;;;;;;2.15;1.30;;;;;;;9.48;100.00;99116.00;5024663;28;20423;-67
2023/12/11 11:38:53;;;;;;;2.27;1.10;;;;;;;9.51;100.00;99110.13;5020702;28;20428;-67
2023/12/11 11:41:27;;;;;;;2.40;0.87;;;;;;;9.50;100.00;99121.97;5023289;28;20511;-67
2023/12/11 11:44:01;;;;;;;1.10;0.80;;;;;;;9.51;100.00;99118.22;5028661;28;20458;-66
2023/12/11 11:46:47;;;;;;;1.67;0.77;;;;;;;9.55;100.00;99113.97;5022133;28;20926;-67
2023/12/11 11:49:33;;;;;;;1.13;0.97;;;;;;;9.82;100.00;99120.50;5030819;28;20407;-67
2023/12/11 11:52:24;;;;;;;6.20;1.80;;;;;;;9.67;100.00;99128.28;5024733;28;20422;-67